Time;durP1;ratioP1;P1;durP2;ratioP2;P2;SDS_P1;SDS_P2;PMS_P1;PMS_P2;Temp;Humidity;BMP_temperature;BMP_pressure;BME280_temperature;BME280_humidity;BME280_pressure;Samples;Min_cycle;Max_cycle;Signal;HPM_P1;HPM_P2
2022/04/11 00:01:24;;;;;;;11.63;3.35;;;4.40;99.90;;;;;;5148684;27;20038;-59
2022/04/11 00:03:50;;;;;;;6.50;2.85;;;4.30;99.90;;;;;;5149316;27;20022;-59
2022/04/11 00:06:16;;;;;;;3.22;2.45;;;4.30;99.90;;;;;;5149202;27;20063;-59
2022/04/11 00:08:41;;;;;;;6.05;2.90;;;4.30;99.90;;;;;;5148919;27;20071;-59
2022/04/11 00:11:07;;;;;;;5.28;3.13;;;4.30;99.90;;;;;;5149039;27;20364;-59
2022/04/11 00:13:33;;;;;;;5.72;2.67;;;4.30;99.90;;;;;;5149174;27;20495;-59
2022/04/11 00:15:59;;;;;;;8.85;2.97;;;4.20;99.90;;;;;;5149132;27;20026;-59
2022/04/11 00:18:25;;;;;;;9.85;3.00;;;4.20;99.90;;;;;;5150989;27;20150;-59
2022/04/11 00:20:50;;;;;;;6.68;3.92;;;4.10;99.90;;;;;;5152831;27;20371;-59
2022/04/11 00:23:16;;;;;;;6.00;3.53;;;4.10;99.90;;;;;;5153114;27;20030;-59
2022/04/11 00:25:42;;;;;;;7.03;3.55;;;4.10;99.90;;;;;;5145766;27;20026;-59
2022/04/11 00:28:07;;;;;;;5.95;3.30;;;4.10;99.90;;;;;;5144683;27;20022;-59
2022/04/11 00:30:33;;;;;;;7.40;2.95;;;4.00;99.90;;;;;;5152208;27;20030;-59
2022/04/11 00:32:58;;;;;;;4.47;2.80;;;4.00;99.90;;;;;;5153416;27;20502;-59
2022/04/11 00:35:24;;;;;;;6.38;3.25;;;4.00;99.90;;;;;;5152786;27;20022;-59
2022/04/11 00:37:49;;;;;;;6.60;3.20;;;4.00;99.90;;;;;;5153117;27;20038;-59
2022/04/11 00:40:15;;;;;;;7.03;3.63;;;4.00;99.90;;;;;;5151986;27;20030;-59
2022/04/11 00:42:41;;;;;;;10.38;2.83;;;4.00;99.90;;;;;;5152927;27;20460;-59
2022/04/11 00:45:07;;;;;;;7.70;3.20;;;3.90;99.90;;;;;;5152840;27;20015;-59
2022/04/11 00:47:34;;;;;;;5.25;3.30;;;3.90;99.90;;;;;;5152898;27;20080;-59
2022/04/11 00:50:07;;;;;;;8.38;2.97;;;3.90;99.90;;;;;;5152278;27;20031;-59
2022/04/11 00:52:38;;;;;;;8.27;3.28;;;3.90;99.90;;;;;;5153136;27;20031;-59
2022/04/11 00:55:05;;;;;;;;;;;3.90;99.90;;;;;;5150806;27;20015;-59
2022/04/11 00:57:30;;;;;;;6.18;2.97;;;3.90;99.90;;;;;;5139515;27;19907;-59
2022/04/11 00:59:57;;;;;;;4.68;3.30;;;3.90;99.90;;;;;;5152123;27;20093;-59
2022/04/11 01:02:22;;;;;;;5.30;3.05;;;3.80;99.90;;;;;;5151429;27;20038;-60
2022/04/11 01:04:48;;;;;;;17.40;3.88;;;3.90;99.90;;;;;;5151966;27;20022;-59
2022/04/11 01:07:14;;;;;;;10.82;3.72;;;3.80;99.90;;;;;;5152108;27;20484;-59
2022/04/11 01:09:40;;;;;;;7.53;3.95;;;3.80;99.90;;;;;;5151143;27;20054;-60
2022/04/11 01:12:06;;;;;;;7.35;3.72;;;3.80;99.90;;;;;;5151601;27;20026;-59
2022/04/11 01:14:32;;;;;;;5.40;3.30;;;3.80;99.90;;;;;;5151660;27;20224;-59
2022/04/11 01:16:58;;;;;;;4.15;2.70;;;3.80;99.90;;;;;;5151929;27;20476;-59
2022/04/11 01:19:25;;;;;;;9.32;3.58;;;3.70;99.90;;;;;;5150943;27;20063;-59
2022/04/11 01:21:51;;;;;;;7.32;2.80;;;3.70;99.90;;;;;;5151208;27;20091;-59
2022/04/11 01:24:20;;;;;;;6.38;2.75;;;3.70;99.90;;;;;;5151571;27;20031;-59
2022/04/11 01:26:46;;;;;;;5.55;3.20;;;3.70;99.90;;;;;;5140885;27;20026;-59
2022/04/11 01:29:13;;;;;;;6.07;2.80;;;3.70;99.90;;;;;;5145814;27;20053;-59
2022/04/11 01:31:38;;;;;;;9.07;3.38;;;3.70;99.90;;;;;;5151205;27;20030;-59
2022/04/11 01:34:04;;;;;;;7.88;3.30;;;3.70;99.90;;;;;;5151077;27;20023;-59
2022/04/11 01:36:30;;;;;;;6.25;3.10;;;3.70;99.90;;;;;;5151363;27;20050;-60
2022/04/11 01:38:55;;;;;;;5.15;3.20;;;3.60;99.90;;;;;;5150470;27;20467;-59
2022/04/11 01:41:21;;;;;;;4.90;3.28;;;3.60;99.90;;;;;;5150826;27;20121;-59
2022/04/11 01:43:47;;;;;;;5.30;2.75;;;3.60;99.90;;;;;;5151202;27;20129;-59
2022/04/11 01:46:12;;;;;;;7.28;3.28;;;3.60;99.90;;;;;;5150948;27;20025;-59
2022/04/11 01:48:38;;;;;;;5.55;2.97;;;3.50;99.90;;;;;;5150978;27;20027;-59
2022/04/11 01:51:04;;;;;;;6.82;3.22;;;3.60;99.90;;;;;;5151571;27;20031;-59
2022/04/11 01:53:30;;;;;;;5.95;2.90;;;3.60;99.90;;;;;;5151763;27;20396;-59
2022/04/11 01:55:55;;;;;;;7.38;3.20;;;3.60;99.90;;;;;;5145604;27;20494;-59
2022/04/11 01:58:21;;;;;;;10.05;3.20;;;3.60;99.90;;;;;;5142299;27;20022;-59
2022/04/11 02:00:46;;;;;;;6.25;3.03;;;3.60;99.90;;;;;;5150863;27;20428;-59
2022/04/11 02:03:12;;;;;;;8.25;3.28;;;3.60;99.90;;;;;;5151543;27;20070;-59
2022/04/11 02:05:40;;;;;;;6.50;2.88;;;3.60;99.90;;;;;;5151807;27;20435;-59
2022/04/11 02:08:07;;;;;;;9.23;3.30;;;3.60;99.90;;;;;;5151538;27;20428;-59
2022/04/11 02:10:33;;;;;;;8.27;2.90;;;3.50;99.90;;;;;;5150567;27;20018;-59
2022/04/11 02:12:58;;;;;;;9.32;2.97;;;3.50;99.90;;;;;;5149933;27;20480;-59
2022/04/11 02:15:24;;;;;;;9.25;3.45;;;3.50;99.90;;;;;;5151274;27;20065;-59
2022/04/11 02:17:50;;;;;;;5.38;3.03;;;3.50;99.90;;;;;;5150787;27;20026;-59
2022/04/11 02:20:16;;;;;;;5.05;2.92;;;3.50;99.90;;;;;;5150712;27;20023;-59
2022/04/11 02:22:52;;;;;;;7.30;3.00;;;3.50;99.90;;;;;;5151262;27;20030;-59
2022/04/11 02:25:24;;;;;;;10.45;3.83;;;3.60;99.90;;;;;;5144398;27;20085;-59
2022/04/11 02:27:50;;;;;;;8.10;3.10;;;3.50;99.90;;;;;;5141027;27;20023;-59
2022/04/11 02:30:17;;;;;;;5.38;2.92;;;3.50;99.90;;;;;;5150262;27;20029;-59
2022/04/11 02:32:43;;;;;;;6.97;2.88;;;3.50;99.90;;;;;;5149535;27;20026;-59
2022/04/11 02:35:09;;;;;;;7.13;3.42;;;3.50;99.90;;;;;;5151120;27;20030;-59
2022/04/11 02:37:34;;;;;;;7.07;3.38;;;3.40;99.90;;;;;;5150667;27;20031;-59
2022/04/11 02:40:01;;;;;;;10.80;3.35;;;3.40;99.90;;;;;;5150086;27;20057;-59
2022/04/11 02:42:28;;;;;;;8.32;3.30;;;3.40;99.90;;;;;;5150505;27;20064;-59
2022/04/11 02:44:54;;;;;;;8.43;3.20;;;3.40;99.90;;;;;;5150241;27;20424;-59
2022/04/11 02:47:20;;;;;;;11.30;3.53;;;3.40;99.90;;;;;;5150752;27;20026;-59
2022/04/11 02:49:46;;;;;;;5.30;3.28;;;3.30;99.90;;;;;;5150030;27;20037;-59
2022/04/11 02:52:12;;;;;;;9.13;3.60;;;3.30;99.90;;;;;;5150552;27;20031;-59
2022/04/11 02:54:38;;;;;;;7.78;3.42;;;3.30;99.90;;;;;;5150379;27;20471;-59
2022/04/11 02:57:04;;;;;;;5.57;2.95;;;3.30;99.90;;;;;;5139949;27;20525;-59
2022/04/11 02:59:30;;;;;;;5.82;3.67;;;3.30;99.90;;;;;;5142616;27;20027;-59
2022/04/11 03:01:56;;;;;;;7.88;3.50;;;3.20;99.90;;;;;;5119963;27;20037;-59
2022/04/11 03:04:21;;;;;;;7.32;3.05;;;3.20;99.90;;;;;;5120258;27;20433;-59
2022/04/11 03:06:47;;;;;;;7.35;3.65;;;3.20;99.90;;;;;;5110876;27;20063;-59
2022/04/11 03:09:12;;;;;;;7.97;3.70;;;3.20;99.90;;;;;;5108315;28;20024;-59
2022/04/11 03:11:38;;;;;;;7.13;3.70;;;3.10;99.90;;;;;;5108550;28;20095;-59
2022/04/11 03:14:03;;;;;;;7.63;3.65;;;3.10;99.90;;;;;;5108991;28;20020;-59
2022/04/11 03:16:29;;;;;;;5.75;3.58;;;3.10;99.90;;;;;;5109235;28;20152;-58
2022/04/11 03:18:54;;;;;;;7.30;3.60;;;3.00;99.90;;;;;;5108263;28;20409;-59
2022/04/11 03:21:20;;;;;;;6.13;3.63;;;3.00;99.90;;;;;;5108982;28;20027;-59
2022/04/11 03:23:46;;;;;;;6.47;4.07;;;2.90;99.90;;;;;;5108914;28;20024;-59
2022/04/11 03:26:11;;;;;;;6.30;3.50;;;3.00;99.90;;;;;;5123940;27;20493;-59
2022/04/11 03:28:38;;;;;;;9.55;3.85;;;2.90;99.90;;;;;;5140873;27;20086;-59
2022/04/11 03:31:03;;;;;;;12.65;3.70;;;2.80;99.90;;;;;;5150034;27;20031;-59
2022/04/11 03:33:29;;;;;;;7.88;3.88;;;2.70;99.90;;;;;;5149432;27;20176;-58
2022/04/11 03:35:54;;;;;;;8.02;3.70;;;2.70;99.90;;;;;;5149905;27;20019;-59
2022/04/11 03:38:20;;;;;;;8.13;3.88;;;2.70;99.90;;;;;;5149869;27;20037;-58
2022/04/11 03:40:45;;;;;;;12.52;3.85;;;2.60;99.90;;;;;;5148776;27;20025;-59
2022/04/11 03:43:11;;;;;;;6.95;3.60;;;2.60;99.90;;;;;;5149841;27;20030;-59
2022/04/11 03:45:37;;;;;;;6.43;4.03;;;2.60;99.90;;;;;;5149578;27;20034;-59
2022/04/11 03:48:02;;;;;;;5.70;3.25;;;2.60;99.90;;;;;;5149549;27;20037;-59
2022/04/11 03:50:28;;;;;;;5.28;3.70;;;2.60;99.90;;;;;;5148424;27;20027;-59
2022/04/11 03:52:53;;;;;;;10.48;3.58;;;2.60;99.90;;;;;;5148729;27;20440;-59
2022/04/11 03:55:19;;;;;;;7.85;4.03;;;2.70;99.90;;;;;;5146326;27;20576;-59
2022/04/11 03:57:44;;;;;;;11.15;4.10;;;2.70;99.90;;;;;;5140498;27;20019;-59
2022/04/11 04:00:11;;;;;;;7.93;3.92;;;2.70;99.90;;;;;;5148823;27;20499;-59
2022/04/11 04:02:36;;;;;;;6.57;3.42;;;2.70;99.90;;;;;;5148823;27;20038;-59
2022/04/11 04:05:02;;;;;;;7.55;3.65;;;2.80;99.90;;;;;;5142938;27;20029;-59
2022/04/11 04:07:27;;;;;;;8.25;3.38;;;2.80;99.90;;;;;;5128300;27;20019;-59
2022/04/11 04:09:53;;;;;;;9.13;3.80;;;2.80;99.90;;;;;;5126163;27;20027;-59
2022/04/11 04:12:20;;;;;;;7.95;4.75;;;2.80;99.90;;;;;;5127588;27;20459;-59
2022/04/11 04:14:49;;;;;;;8.25;3.72;;;2.80;99.90;;;;;;5128366;27;20376;-59
2022/04/11 04:17:15;;;;;;;5.10;3.10;;;2.80;99.90;;;;;;5127974;27;20083;-59
2022/04/11 04:19:41;;;;;;;7.63;3.47;;;2.90;99.90;;;;;;5127600;27;20106;-60
2022/04/11 04:22:07;;;;;;;10.02;4.20;;;2.90;99.90;;;;;;5128447;28;20273;-60
2022/04/11 04:24:34;;;;;;;7.63;3.78;;;2.90;99.90;;;;;;5128024;27;20031;-59
2022/04/11 04:27:01;;;;;;;12.57;3.75;;;2.90;99.90;;;;;;5136553;27;20088;-58
2022/04/11 04:29:27;;;;;;;5.95;3.40;;;2.90;99.90;;;;;;5147848;27;20026;-58
2022/04/11 04:31:52;;;;;;;6.00;3.20;;;2.90;99.90;;;;;;5150257;27;20283;-59
2022/04/11 04:34:18;;;;;;;15.80;4.05;;;2.90;99.90;;;;;;5149961;27;20094;-58
2022/04/11 04:36:43;;;;;;;9.73;3.85;;;2.90;99.90;;;;;;5149927;27;20159;-58
2022/04/11 04:39:09;;;;;;;11.15;3.72;;;2.90;99.90;;;;;;5149536;27;20439;-59
2022/04/11 04:41:34;;;;;;;7.22;4.18;;;3.00;99.90;;;;;;5135636;27;20022;-59
2022/04/11 04:44:00;;;;;;;9.10;4.13;;;2.90;99.90;;;;;;5145092;27;20019;-59
2022/04/11 04:46:25;;;;;;;9.40;4.15;;;3.00;99.90;;;;;;5116416;27;20023;-59
2022/04/11 04:48:51;;;;;;;7.13;3.47;;;3.00;99.90;;;;;;5127125;27;20400;-59
2022/04/11 04:51:19;;;;;;;10.15;3.97;;;3.10;99.90;;;;;;5121574;27;20234;-59
2022/04/11 04:53:45;;;;;;;6.43;3.95;;;3.10;99.90;;;;;;5122859;27;20464;-59
2022/04/11 04:56:10;;;;;;;9.38;4.50;;;3.20;99.90;;;;;;5126464;27;20018;-59
2022/04/11 04:58:36;;;;;;;6.60;3.45;;;3.20;99.90;;;;;;5125836;27;20054;-59
2022/04/11 05:01:02;;;;;;;6.00;3.20;;;3.20;99.90;;;;;;5122958;27;20023;-59
2022/04/11 05:03:28;;;;;;;7.32;3.50;;;3.30;99.90;;;;;;5140705;27;20499;-59
2022/04/11 05:05:55;;;;;;;6.63;3.10;;;3.30;99.90;;;;;;5130199;27;20034;-59
2022/04/11 05:08:21;;;;;;;5.35;2.85;;;3.30;99.90;;;;;;5123511;27;20023;-59
2022/04/11 05:10:46;;;;;;;4.82;2.85;;;3.30;99.90;;;;;;5123681;27;20046;-59
2022/04/11 05:13:12;;;;;;;7.65;3.25;;;3.40;99.90;;;;;;5132646;27;20027;-58
2022/04/11 05:15:38;;;;;;;6.22;2.67;;;3.40;99.90;;;;;;5132470;27;20031;-59
2022/04/11 05:18:04;;;;;;;7.80;3.08;;;3.50;99.90;;;;;;5132566;27;20015;-59
2022/04/11 05:20:29;;;;;;;4.20;3.15;;;3.50;99.90;;;;;;5131830;27;20034;-59
2022/04/11 05:22:55;;;;;;;10.57;3.83;;;3.50;99.90;;;;;;5132146;27;20041;-59
2022/04/11 05:25:20;;;;;;;7.00;3.35;;;3.60;99.90;;;;;;5128313;27;20059;-59
2022/04/11 05:27:46;;;;;;;6.43;3.35;;;3.60;99.90;;;;;;5124893;27;20031;-59
2022/04/11 05:30:11;;;;;;;5.97;3.08;;;3.80;99.90;;;;;;5117797;27;20027;-59
2022/04/11 05:32:37;;;;;;;9.63;3.95;;;3.80;99.90;;;;;;5127072;27;20030;-59
2022/04/11 05:35:03;;;;;;;7.03;2.80;;;3.90;99.90;;;;;;5125427;27;20027;-59
2022/04/11 05:37:28;;;;;;;6.47;3.00;;;4.00;99.90;;;;;;5134289;27;20027;-57
2022/04/11 05:39:54;;;;;;;3.40;2.65;;;4.00;99.90;;;;;;5124099;27;20110;-60
2022/04/11 05:42:19;;;;;;;9.05;2.55;;;4.20;99.90;;;;;;5129082;27;20043;-59
2022/04/11 05:44:45;;;;;;;4.13;2.60;;;4.30;99.90;;;;;;5141197;27;20033;-60
2022/04/11 05:47:12;;;;;;;4.00;2.25;;;4.30;99.90;;;;;;5134751;27;20020;-60
2022/04/11 05:49:38;;;;;;;5.50;2.40;;;4.40;99.90;;;;;;5137699;27;20047;-60
2022/04/11 05:52:05;;;;;;;5.30;2.88;;;4.40;99.90;;;;;;5120105;27;20020;-60
2022/04/11 05:54:31;;;;;;;9.07;3.17;;;4.40;99.90;;;;;;5127180;27;20388;-60
2022/04/11 05:56:57;;;;;;;5.03;2.28;;;4.50;99.90;;;;;;5136010;27;20024;-60
2022/04/11 05:59:23;;;;;;;5.55;2.63;;;4.50;99.90;;;;;;5127906;27;20011;-60
2022/04/11 06:01:48;;;;;;;7.78;2.20;;;4.60;99.90;;;;;;5147329;27;20129;-60
2022/04/11 06:04:14;;;;;;;8.13;3.20;;;4.70;99.90;;;;;;5112589;27;20031;-60
2022/04/11 06:06:39;;;;;;;9.00;2.97;;;4.70;99.90;;;;;;5117085;27;20035;-60
2022/04/11 06:09:05;;;;;;;9.65;3.15;;;4.70;99.90;;;;;;5131080;27;20039;-60
2022/04/11 06:11:31;;;;;;;5.10;2.90;;;4.70;99.90;;;;;;5133553;27;20334;-59
2022/04/11 06:13:56;;;;;;;4.40;2.78;;;4.70;99.90;;;;;;5147971;27;20270;-60
2022/04/11 06:16:22;;;;;;;6.72;3.22;;;4.80;99.90;;;;;;5133916;27;20050;-60
2022/04/11 06:18:47;;;;;;;7.15;3.40;;;4.80;99.90;;;;;;5130753;27;20525;-60
2022/04/11 06:21:13;;;;;;;8.02;2.75;;;4.80;99.90;;;;;;5114734;27;20062;-59
2022/04/11 06:23:38;;;;;;;5.63;3.00;;;4.90;99.90;;;;;;5117092;27;20383;-60
2022/04/11 06:26:04;;;;;;;7.25;3.17;;;5.00;99.90;;;;;;5127055;27;20084;-60
2022/04/11 06:28:29;;;;;;;10.77;3.00;;;5.00;99.90;;;;;;5137788;27;20095;-60
2022/04/11 06:30:55;;;;;;;4.88;2.75;;;5.00;99.90;;;;;;5123777;27;20110;-60
2022/04/11 06:33:20;;;;;;;8.68;3.17;;;5.10;99.90;;;;;;5118805;27;20189;-60
2022/04/11 06:35:46;;;;;;;6.68;3.33;;;5.10;99.90;;;;;;5143406;27;20095;-60
2022/04/11 06:38:12;;;;;;;4.90;2.85;;;5.10;99.90;;;;;;5135394;27;20468;-60
2022/04/11 06:40:37;;;;;;;5.72;3.78;;;5.10;99.90;;;;;;5129262;27;20030;-60
2022/04/11 06:43:03;;;;;;;9.75;3.08;;;5.10;99.90;;;;;;5115505;27;20035;-60
2022/04/11 06:45:28;;;;;;;6.75;3.17;;;5.20;99.90;;;;;;5114472;27;20047;-59
2022/04/11 06:47:54;;;;;;;8.73;3.28;;;5.10;99.90;;;;;;5110347;27;20469;-59
2022/04/11 06:50:19;;;;;;;5.53;2.95;;;5.20;99.90;;;;;;5128071;27;20089;-59
2022/04/11 06:52:45;;;;;;;6.93;2.80;;;5.20;99.90;;;;;;5147049;27;20145;-59
2022/04/11 06:55:10;;;;;;;6.95;2.75;;;5.20;99.90;;;;;;5130744;27;20499;-59
2022/04/11 06:57:36;;;;;;;3.55;2.50;;;5.30;99.90;;;;;;5130581;27;20019;-59
2022/04/11 07:00:02;;;;;;;8.98;3.03;;;5.40;99.90;;;;;;5125065;27;20387;-59
2022/04/11 07:02:27;;;;;;;5.40;2.88;;;5.50;99.90;;;;;;5137717;27;20023;-59
2022/04/11 07:04:53;;;;;;;12.18;4.50;;;5.60;99.90;;;;;;5122698;27;20042;-59
2022/04/11 07:07:19;;;;;;;5.93;3.30;;;5.60;99.90;;;;;;5125318;27;20047;-60
2022/04/11 07:09:45;;;;;;;5.47;2.83;;;5.80;99.90;;;;;;5129693;27;20023;-59
2022/04/11 07:12:11;;;;;;;3.90;2.60;;;6.00;99.90;;;;;;5129882;27;20384;-59
2022/04/11 07:14:36;;;;;;;5.88;2.60;;;6.20;99.90;;;;;;5122712;27;20096;-59
2022/04/11 07:17:02;;;;;;;10.20;2.80;;;6.40;99.90;;;;;;5130444;27;20030;-59
2022/04/11 07:19:28;;;;;;;5.55;2.50;;;6.50;99.90;;;;;;5129804;27;20571;-59
2022/04/11 07:21:53;;;;;;;4.18;2.33;;;6.70;99.90;;;;;;5129399;27;20023;-59
2022/04/11 07:24:19;;;;;;;6.60;2.65;;;6.80;99.90;;;;;;5130257;27;20054;-59
2022/04/11 07:26:44;;;;;;;4.40;2.67;;;6.90;99.90;;;;;;5117668;27;20056;-59
2022/04/11 07:29:10;;;;;;;10.27;3.00;;;7.20;99.90;;;;;;5142730;27;20073;-59
2022/04/11 07:31:36;;;;;;;6.32;2.55;;;7.40;99.90;;;;;;5143043;27;20555;-59
2022/04/11 07:34:01;;;;;;;5.45;2.72;;;7.50;99.90;;;;;;5133412;27;20467;-59
2022/04/11 07:36:30;;;;;;;6.78;2.90;;;7.50;99.90;;;;;;5115248;27;20032;-59
2022/04/11 07:38:57;;;;;;;6.68;3.70;;;7.60;99.90;;;;;;5130618;27;20106;-59
2022/04/11 07:41:23;;;;;;;6.80;2.80;;;7.90;99.90;;;;;;5148040;27;20114;-59
2022/04/11 07:43:50;;;;;;;5.13;2.35;;;8.20;99.90;;;;;;5150469;27;20160;-59
2022/04/11 07:46:15;;;;;;;7.97;2.60;;;8.50;99.90;;;;;;5140686;27;20028;-58
2022/04/11 07:48:41;;;;;;;5.40;2.28;;;8.80;99.60;;;;;;5141275;27;20599;-58
2022/04/11 07:51:07;;;;;;;4.32;3.03;;;9.00;99.90;;;;;;5150539;27;20027;-57
2022/04/11 07:53:32;;;;;;;3.30;2.58;;;9.20;99.70;;;;;;5146640;27;20035;-58
2022/04/11 07:55:58;;;;;;;5.40;2.25;;;9.30;99.20;;;;;;5121478;27;20035;-58
2022/04/11 07:58:23;;;;;;;6.07;2.25;;;9.70;98.50;;;;;;5124591;27;20491;-58
2022/04/11 08:00:51;;;;;;;6.32;2.20;;;10.00;97.00;;;;;;5132068;27;20468;-58
2022/04/11 08:03:17;;;;;;;4.70;1.95;;;10.30;95.50;;;;;;5129613;27;20387;-57
2022/04/11 08:05:43;;;;;;;5.60;2.45;;;10.70;93.60;;;;;;5129048;27;20019;-58
2022/04/11 08:08:09;;;;;;;5.25;2.35;;;10.70;92.10;;;;;;5128685;27;20026;-58
2022/04/11 08:10:34;;;;;;;26.73;11.60;;;10.60;92.60;;;;;;5131233;27;20045;-58
2022/04/11 08:13:01;;;;;;;3.20;2.05;;;11.00;92.40;;;;;;5141124;27;20027;-58
2022/04/11 08:15:28;;;;;;;5.38;2.20;;;11.30;91.80;;;;;;5150384;27;20023;-57
2022/04/11 08:17:54;;;;;;;5.43;1.65;;;11.60;90.20;;;;;;5136540;27;20392;-57
2022/04/11 08:20:20;;;;;;;5.75;2.15;;;11.80;90.00;;;;;;5112700;27;20025;-57
2022/04/11 08:22:46;;;;;;;4.38;1.88;;;11.90;86.10;;;;;;5149803;27;20023;-58
2022/04/11 08:25:12;;;;;;;5.53;1.75;;;12.60;86.20;;;;;;5115014;27;20035;-58
2022/04/11 08:27:37;;;;;;;7.70;2.20;;;12.70;85.40;;;;;;5128108;27;20027;-58
2022/04/11 08:30:04;;;;;;;5.40;2.78;;;12.80;80.90;;;;;;5128037;27;20036;-58
2022/04/11 08:32:46;;;;;;;4.68;2.85;;;13.10;82.10;;;;;;5111561;27;20326;-58
2022/04/11 08:35:12;;;;;;;3.50;2.40;;;13.30;82.00;;;;;;5110649;27;20039;-58
2022/04/11 08:37:40;;;;;;;6.07;2.20;;;13.80;80.40;;;;;;5113060;27;20026;-58
2022/04/11 08:40:06;;;;;;;5.53;2.05;;;14.00;74.70;;;;;;5126650;27;20023;-58
2022/04/11 08:42:32;;;;;;;2.80;1.50;;;14.10;75.20;;;;;;5140552;27;20024;-58
2022/04/11 08:45:00;;;;;;;4.15;1.85;;;14.70;73.20;;;;;;5139217;27;20030;-58
2022/04/11 08:47:25;;;;;;;3.72;2.03;;;14.80;74.00;;;;;;5131294;27;20030;-58
2022/04/11 08:49:53;;;;;;;3.50;2.00;;;15.30;70.90;;;;;;5140655;27;20027;-58
2022/04/11 08:52:20;;;;;;;5.63;1.92;;;15.90;70.30;;;;;;5141186;27;20096;-58
2022/04/11 08:54:46;;;;;;;3.58;2.03;;;16.60;67.10;;;;;;5128472;27;20020;-59
2022/04/11 08:57:11;;;;;;;4.75;2.00;;;17.10;65.50;;;;;;5121275;27;20053;-58
2022/04/11 08:59:37;;;;;;;4.93;2.00;;;17.70;63.00;;;;;;5123918;27;20114;-58
2022/04/11 09:02:08;;;;;;;7.50;2.55;;;17.70;60.80;;;;;;5118493;27;20169;-49
2022/04/11 09:04:50;;;;;;;4.82;1.92;;;17.80;56.30;;;;;;5115675;27;20030;-48
2022/04/11 09:07:16;;;;;;;3.08;1.80;;;17.70;58.00;;;;;;5117409;27;20020;-46
2022/04/11 09:09:41;;;;;;;3.45;2.05;;;18.40;58.10;;;;;;5117702;27;20670;-49
2022/04/11 09:12:15;;;;;;;6.90;2.40;;;19.10;54.30;;;;;;5115592;27;20194;-47
2022/04/11 09:14:50;;;;;;;3.13;1.90;;;17.90;53.20;;;;;;5114257;27;20085;-47
2022/04/11 09:17:16;;;;;;;2.45;1.80;;;18.00;55.90;;;;;;5117534;27;20028;-49
2022/04/11 09:19:41;;;;;;;4.30;1.83;;;18.70;54.70;;;;;;5142006;27;20031;-48
2022/04/11 09:22:07;;;;;;;3.63;1.80;;;19.10;53.50;;;;;;5120706;27;20393;-48
2022/04/11 09:24:33;;;;;;;3.42;1.75;;;18.70;51.10;;;;;;5129499;27;20026;-49
2022/04/11 09:26:59;;;;;;;4.22;2.20;;;19.10;53.10;;;;;;5123055;27;20039;-50
2022/04/11 09:29:26;;;;;;;3.72;1.90;;;19.80;53.60;;;;;;5125015;27;20023;-50
2022/04/11 09:31:52;;;;;;;5.90;2.22;;;20.50;52.60;;;;;;5126357;27;20038;-49
2022/04/11 09:34:24;;;;;;;3.30;1.60;;;20.80;50.00;;;;;;5127889;27;20368;-49
2022/04/11 09:36:52;;;;;;;3.30;1.73;;;22.20;47.10;;;;;;5125108;27;20142;-48
2022/04/11 09:39:21;;;;;;;4.88;2.17;;;22.60;45.80;;;;;;5118812;27;20113;-48
2022/04/11 09:41:47;;;;;;;3.88;1.65;;;22.60;45.80;;;;;;5118267;27;20106;-48
2022/04/11 09:44:27;;;;;;;4.10;1.88;;;22.50;46.60;;;;;;5112592;27;20119;-50
2022/04/11 09:46:59;;;;;;;4.95;2.25;;;23.10;45.50;;;;;;5114336;27;20031;-49
2022/04/11 09:49:25;;;;;;;4.70;1.77;;;22.50;46.30;;;;;;5114610;27;20051;-50
2022/04/11 09:52:13;;;;;;;2.97;1.90;;;23.40;45.80;;;;;;5116967;27;20039;-49
2022/04/11 09:54:50;;;;;;;2.80;1.90;;;24.30;40.70;;;;;;5115507;27;20112;-49
2022/04/11 09:57:17;;;;;;;5.90;2.00;;;24.40;43.30;;;;;;5115652;27;20011;-51
2022/04/11 09:59:45;;;;;;;3.22;2.08;;;25.30;43.00;;;;;;5115072;27;20019;-50
2022/04/11 10:02:12;;;;;;;4.10;1.98;;;25.20;39.90;;;;;;5114082;27;20122;-50
2022/04/11 10:04:39;;;;;;;4.22;1.80;;;25.20;42.30;;;;;;5114742;27;20395;-50
2022/04/11 10:07:09;;;;;;;3.92;2.47;;;25.30;41.80;;;;;;5115901;27;20030;-51
2022/04/11 10:09:38;;;;;;;4.03;2.10;;;24.90;37.30;;;;;;5112865;27;20683;-50
2022/04/11 10:12:04;;;;;;;5.28;2.40;;;24.50;41.10;;;;;;5112268;27;20418;-49
2022/04/11 10:14:29;;;;;;;3.35;2.13;;;25.30;38.60;;;;;;5113128;27;20121;-51
2022/04/11 10:16:57;;;;;;;3.97;2.00;;;25.10;37.90;;;;;;5113832;27;20062;-51
2022/04/11 10:19:29;;;;;;;4.68;2.50;;;25.10;39.00;;;;;;5114497;27;20465;-51
2022/04/11 10:21:59;;;;;;;4.50;2.28;;;25.40;38.60;;;;;;5114015;27;20016;-51
2022/04/11 10:24:33;;;;;;;;;;;25.50;38.00;;;;;;5117525;27;20049;-51
2022/04/11 10:27:16;;;;;;;3.88;1.95;;;26.50;37.10;;;;;;5118870;27;19903;-50
2022/04/11 10:29:41;;;;;;;5.45;2.50;;;26.00;38.80;;;;;;5113760;27;20027;-50
2022/04/11 10:32:12;;;;;;;4.95;2.92;;;25.30;36.50;;;;;;5113978;27;20023;-50
2022/04/11 10:34:50;;;;;;;5.15;2.70;;;26.10;35.40;;;;;;5115108;27;20011;-50
2022/04/11 10:37:17;;;;;;;5.30;3.70;;;25.50;37.20;;;;;;5127702;27;20689;-49
2022/04/11 10:39:45;;;;;;;5.47;2.78;;;24.80;34.90;;;;;;5132701;27;20476;-50
2022/04/11 10:42:14;;;;;;;4.88;2.85;;;24.70;36.10;;;;;;5125925;27;20035;-48
2022/04/11 10:44:50;;;;;;;6.22;3.20;;;23.90;37.40;;;;;;5130623;27;20114;-47
2022/04/11 10:47:16;;;;;;;6.25;3.50;;;23.50;37.60;;;;;;5128294;27;20031;-48
2022/04/11 10:49:44;;;;;;;5.07;2.88;;;23.70;37.70;;;;;;5121095;27;20087;-50
2022/04/11 10:52:34;;;;;;;3.30;2.60;;;24.20;36.20;;;;;;5120709;27;20030;-50
2022/04/11 10:55:17;;;;;;;28.40;19.45;;;25.60;36.80;;;;;;5125120;27;20641;-49
2022/04/11 10:57:59;;;;;;;8.50;6.40;;;26.00;33.90;;;;;;5128635;27;20030;-57
2022/04/11 11:00:33;;;;;;;4.50;2.92;;;26.10;33.20;;;;;;5130385;27;20029;-51
2022/04/11 11:03:01;;;;;;;5.57;3.55;;;25.70;35.30;;;;;;5126308;27;20787;-50
2022/04/11 11:05:32;;;;;;;4.68;3.38;;;25.40;34.90;;;;;;5122780;27;20023;-51
2022/04/11 11:08:10;;;;;;;5.28;3.60;;;24.90;36.70;;;;;;5127998;27;20486;-49
2022/04/11 11:10:59;;;;;;;4.53;2.55;;;25.30;35.10;;;;;;5120836;27;20149;-50
2022/04/11 11:13:45;;;;;;;3.58;3.10;;;24.90;36.30;;;;;;5123873;27;20120;-51
2022/04/11 11:16:11;;;;;;;3.80;2.55;;;24.40;37.30;;;;;;5121499;27;20046;-49
2022/04/11 11:18:46;;;;;;;6.72;2.92;;;23.90;37.60;;;;;;5124053;27;20737;-48
2022/04/11 11:21:12;;;;;;;4.03;2.65;;;23.50;38.00;;;;;;5123345;27;20023;-48
2022/04/11 11:23:38;;;;;;;5.63;3.33;;;23.40;37.90;;;;;;5124367;27;20488;-49
2022/04/11 11:26:22;;;;;;;5.60;3.45;;;23.10;39.40;;;;;;5121315;27;20161;-46
2022/04/11 11:28:48;;;;;;;6.07;3.28;;;23.50;39.70;;;;;;5122357;27;20034;-48
2022/04/11 11:31:13;;;;;;;5.15;3.80;;;23.70;38.80;;;;;;5122063;27;20027;-47
2022/04/11 11:33:50;;;;;;;5.03;3.55;;;23.70;36.30;;;;;;5127026;27;20038;-46
2022/04/11 11:36:16;;;;;;;5.38;3.38;;;21.90;38.20;;;;;;5121064;27;20058;-47
2022/04/11 11:38:41;;;;;;;5.07;3.50;;;20.60;40.20;;;;;;5151710;27;20072;-48
2022/04/11 11:41:07;;;;;;;6.43;3.72;;;22.70;39.10;;;;;;5142954;27;20016;-47
2022/04/11 11:43:33;;;;;;;6.13;3.60;;;24.00;35.80;;;;;;5137222;27;20018;-47
2022/04/11 11:46:03;;;;;;;5.97;3.70;;;23.50;38.60;;;;;;5145501;27;20213;-46
2022/04/11 11:48:33;;;;;;;3.70;2.95;;;23.20;39.10;;;;;;5151698;27;20357;-49
2022/04/11 11:51:00;;;;;;;4.82;3.17;;;23.50;39.50;;;;;;5140669;27;20122;-47
2022/04/11 11:53:39;;;;;;;3.92;3.42;;;23.60;36.80;;;;;;5125746;27;20518;-51
2022/04/11 11:56:08;;;;;;;6.87;3.50;;;23.60;35.50;;;;;;5134391;27;20068;-49
2022/04/11 11:58:34;;;;;;;6.32;3.65;;;23.10;36.30;;;;;;5138720;27;20469;-50
2022/04/11 12:01:00;;;;;;;7.43;3.58;;;22.20;38.00;;;;;;5139758;27;20027;-51
2022/04/11 12:06:10;;;;;;;4.13;3.20;;;22.90;37.60;;;;;;5143343;27;20042;-49
2022/04/11 12:08:35;;;;;;;5.25;3.67;;;24.60;35.50;;;;;;5137835;27;20027;-48
2022/04/11 12:11:01;;;;;;;9.07;3.92;;;24.10;36.90;;;;;;5123049;27;20456;-47
2022/04/11 12:13:29;;;;;;;6.65;3.70;;;23.30;38.80;;;;;;5128048;27;20532;-46
2022/04/11 12:16:17;;;;;;;10.05;4.93;;;22.60;38.50;;;;;;5136103;27;20102;-46
2022/04/11 12:18:54;;;;;;;6.05;4.43;;;21.30;37.90;;;;;;5125488;27;20030;-47
2022/04/11 12:21:31;;;;;;;8.85;4.53;;;21.10;41.60;;;;;;5117533;27;20027;-47
2022/04/11 12:23:58;;;;;;;6.68;3.95;;;20.60;41.30;;;;;;5113032;27;20027;-47
2022/04/11 12:26:29;;;;;;;7.85;3.78;;;20.70;39.90;;;;;;5114048;27;20547;-49
2022/04/11 12:28:54;;;;;;;5.82;4.03;;;20.50;40.40;;;;;;5114612;27;20016;-50
2022/04/11 12:31:22;;;;;;;7.10;4.30;;;19.90;42.40;;;;;;5118098;27;20042;-48
2022/04/11 12:33:49;;;;;;;9.05;3.88;;;19.70;42.90;;;;;;5116305;27;20008;-47
2022/04/11 12:36:24;;;;;;;6.65;4.38;;;19.40;43.10;;;;;;5114593;27;20430;-49
2022/04/11 12:38:56;;;;;;;6.60;3.97;;;19.40;44.70;;;;;;5114949;27;20039;-49
2022/04/11 12:41:29;;;;;;;7.22;4.00;;;19.10;41.60;;;;;;5117377;27;20023;-49
2022/04/11 12:44:07;;;;;;;6.88;3.55;;;18.70;45.50;;;;;;5115649;27;20601;-50
2022/04/11 12:46:34;;;;;;;7.13;4.45;;;19.20;43.10;;;;;;5123631;27;20019;-47
2022/04/11 12:49:01;;;;;;;5.20;3.58;;;19.50;44.10;;;;;;5112460;27;20073;-47
2022/04/11 12:51:28;;;;;;;4.60;3.72;;;19.10;43.80;;;;;;5115813;27;20039;-50
2022/04/11 12:54:01;;;;;;;6.95;5.03;;;19.50;42.80;;;;;;5115428;27;20035;-49
2022/04/11 12:56:42;;;;;;;6.53;4.22;;;18.70;42.50;;;;;;5123271;27;20454;-48